createdAt,value
2019-04-21T00:02:05.794Z,101293.88
2019-04-21T00:07:28.089Z,101291.55
2019-04-21T00:12:28.671Z,101291.55
2019-04-21T00:17:24.424Z,101288.00
2019-04-21T00:22:38.033Z,101261.99
2019-04-21T00:27:47.760Z,101274.80
2019-04-21T00:32:48.759Z,101271.73
2019-04-21T00:38:00.553Z,101265.38
2019-04-21T00:43:03.596Z,101265.38
2019-04-21T00:48:16.594Z,101275.66
2019-04-21T00:53:32.138Z,101258.64
2019-04-21T00:58:33.281Z,101257.66
2019-04-21T01:03:43.256Z,101255.95
2019-04-21T01:08:42.662Z,101255.95
2019-04-21T01:13:51.721Z,101254.85
2019-04-21T01:18:51.692Z,101245.05
2019-04-21T01:23:38.144Z,101245.17
2019-04-21T01:29:02.787Z,101245.17
2019-04-21T01:34:08.401Z,101242.85
2019-04-21T01:39:14.989Z,101242.85
2019-04-21T01:44:25.072Z,101236.98
2019-04-21T01:49:15.808Z,101235.26
2019-04-21T01:54:48.297Z,101235.14
2019-04-21T01:59:45.760Z,101232.45
2019-04-21T02:05:06.971Z,101241.13
2019-04-21T02:10:06.485Z,101238.33
2019-04-21T02:15:11.538Z,101238.33
2019-04-21T02:20:06.693Z,101235.00
2019-04-21T02:25:23.112Z,101224.35
2019-04-21T02:30:50.071Z,101217.22
2019-04-21T02:35:50.866Z,101217.33
2019-04-21T02:45:58.598Z,101214.93
2019-04-21T02:50:52.901Z,101209.14
2019-04-21T03:01:38.299Z,101196.77
2019-04-21T03:12:07.020Z,101190.41
2019-04-21T03:17:05.637Z,101187.58
2019-04-21T03:22:12.894Z,101175.20
2019-04-21T03:27:37.719Z,101173.81
2019-04-21T03:42:33.779Z,101164.20
2019-04-21T03:52:46.333Z,101168.84
2019-04-21T04:08:22.810Z,101170.50
2019-04-21T04:13:19.357Z,101182.73
2019-04-21T04:18:28.575Z,101186.63
2019-04-21T04:23:31.603Z,101179.72
2019-04-21T04:28:38.362Z,101180.81
2019-04-21T04:33:53.420Z,101184.10
2019-04-21T04:38:46.847Z,101189.11
2019-04-21T04:53:58.819Z,101182.20
2019-04-21T04:59:28.175Z,101176.45
2019-04-21T05:09:15.443Z,101171.56
2019-04-21T05:20:15.664Z,101185.13
2019-04-21T05:24:25.345Z,101185.13
2019-04-21T05:29:38.811Z,101177.77
2019-04-21T05:34:50.390Z,101180.91
2019-04-21T05:39:57.870Z,101178.34
2019-04-21T05:45:24.157Z,101182.37
2019-04-21T05:50:14.131Z,101176.99
2019-04-21T05:55:31.755Z,101176.99
2019-04-21T06:00:46.742Z,101170.01
2019-04-21T06:10:43.288Z,101165.23
2019-04-21T06:15:50.280Z,101165.23
2019-04-21T06:20:54.281Z,101166.09
2019-04-21T06:26:12.176Z,101162.66
2019-04-21T06:31:12.587Z,101155.16
2019-04-21T06:36:36.324Z,101163.22
2019-04-21T06:46:48.893Z,101161.02
2019-04-21T06:51:43.213Z,101162.93
2019-04-21T06:57:17.059Z,101159.75
2019-04-21T07:01:56.722Z,101154.00
2019-04-21T07:06:59.261Z,101163.03
2019-04-21T07:12:07.488Z,101170.32
2019-04-21T07:17:20.116Z,101164.17
2019-04-21T07:22:17.760Z,101164.17
2019-04-21T07:27:28.955Z,101159.95
2019-04-21T07:32:51.322Z,101156.06
2019-04-21T07:37:35.294Z,101156.06
2019-04-21T07:42:38.003Z,101149.43
2019-04-21T07:47:51.769Z,101144.85
2019-04-21T07:53:08.015Z,101146.38
2019-04-21T07:58:12.460Z,101139.56
2019-04-21T08:03:13.918Z,101128.29
2019-04-21T08:08:15.683Z,101125.39
2019-04-21T08:13:38.189Z,101114.80
2019-04-21T08:18:35.018Z,101118.55
2019-04-21T08:23:37.024Z,101110.73
2019-04-21T08:28:49.468Z,101109.41
2019-04-21T08:33:55.410Z,101109.41
2019-04-21T08:38:53.966Z,101100.98
2019-04-21T08:43:56.124Z,101100.98
2019-04-21T08:49:08.050Z,101096.03
2019-04-21T08:54:15.175Z,101096.03
2019-04-21T08:59:39.053Z,101093.45
2019-04-21T09:04:44.686Z,101093.45
2019-04-21T09:09:54.332Z,101092.48
2019-04-21T09:14:56.729Z,101076.95
2019-04-21T09:20:10.659Z,101075.25
2019-04-21T09:25:01.466Z,101066.86
2019-04-21T09:29:57.674Z,101066.86
2019-04-21T09:35:05.429Z,101058.42
2019-04-21T09:40:04.926Z,101051.05
2019-04-21T09:45:11.772Z,101043.48
2019-04-21T09:50:15.164Z,101039.81
2019-04-21T09:55:22.866Z,101039.81
2019-04-21T10:00:28.720Z,101029.34
2019-04-21T10:05:30.005Z,101027.50
2019-04-21T10:10:34.184Z,101021.54
2019-04-21T10:15:38.060Z,101021.54
2019-04-21T10:20:42.784Z,101013.63
2019-04-21T10:25:46.724Z,101013.63
2019-04-21T10:30:50.961Z,101005.69
2019-04-21T10:35:55.140Z,100998.27
2019-04-21T11:34:39.011Z,100923.17
2019-04-21T11:39:52.183Z,100922.02
2019-04-21T11:44:49.431Z,100916.27
2019-04-21T11:49:54.829Z,100916.27
2019-04-21T11:54:58.796Z,100901.50
2019-04-21T12:00:03.822Z,100900.89
2019-04-21T12:05:09.753Z,100893.11
2019-04-21T12:10:13.620Z,100893.11
2019-04-21T12:15:18.748Z,100879.20
2019-04-21T12:20:22.745Z,100878.22
2019-04-21T12:25:29.747Z,100878.22
2019-04-21T12:30:33.590Z,100873.12
2019-04-21T12:35:37.805Z,100858.59
2019-04-21T12:40:42.272Z,100851.00
2019-04-21T12:45:46.164Z,100843.06
2019-04-21T12:50:49.999Z,100843.06
2019-04-21T12:55:53.891Z,100827.21
2019-04-21T13:00:58.854Z,100820.00
2019-04-21T13:06:03.476Z,100820.00
2019-04-21T13:11:09.397Z,100807.32
2019-04-21T13:16:13.592Z,100797.20
2019-04-21T13:21:18.144Z,100790.54
2019-04-21T13:26:29.670Z,100793.44
2019-04-21T13:31:27.597Z,100779.14
2019-04-21T13:36:31.746Z,100776.94
2019-04-21T13:41:48.345Z,100776.94
2019-04-21T13:46:43.014Z,100755.42
2019-04-21T13:51:48.019Z,100753.59
2019-04-21T13:56:52.369Z,100746.86
2019-04-21T14:01:56.294Z,100746.86
2019-04-21T14:07:00.510Z,100738.87
2019-04-21T14:12:05.412Z,100728.03
2019-04-21T14:17:10.795Z,100721.18
2019-04-21T14:22:16.401Z,100717.75
2019-04-21T14:27:20.504Z,100713.22
2019-04-21T14:32:24.432Z,100713.22
2019-04-21T14:37:28.762Z,100705.39
2019-04-21T14:42:33.929Z,100699.43
2019-04-21T14:47:56.711Z,100690.25
2019-04-21T14:53:17.938Z,100690.25
2019-04-21T14:58:23.275Z,100692.81
2019-04-21T15:03:27.839Z,100684.50
2019-04-21T15:08:33.282Z,100680.09
2019-04-21T15:13:37.713Z,100674.12
2019-04-21T15:18:41.475Z,100673.14
2019-04-21T15:23:46.560Z,100673.14
2019-04-21T15:28:51.015Z,100672.03
2019-04-21T15:33:55.016Z,100662.85
2019-04-21T15:38:58.812Z,100651.33
2019-04-21T15:44:04.768Z,100644.97
2019-04-21T15:49:09.235Z,100647.53
2019-04-21T15:54:14.364Z,100647.53
2019-04-21T15:59:34.703Z,100636.15
2019-04-21T16:04:38.947Z,100628.72
2019-04-21T16:09:43.963Z,100625.03
2019-04-21T16:14:47.890Z,100625.03
2019-04-21T16:19:52.194Z,100610.37
2019-04-21T16:24:56.839Z,100599.34
2019-04-21T16:30:01.964Z,100599.34
2019-04-21T16:35:10.462Z,100599.96
2019-04-21T16:40:13.691Z,100594.31
2019-04-21T16:45:18.840Z,100594.31
2019-04-21T16:50:23.582Z,100588.08
2019-04-21T16:55:35.313Z,100578.42
2019-04-21T17:00:44.850Z,100581.74
2019-04-21T17:05:45.864Z,100580.52
2019-04-21T17:11:05.604Z,100580.52
2019-04-21T17:16:16.443Z,100577.44
2019-04-21T17:21:02.914Z,100563.48
2019-04-21T17:26:06.627Z,100563.72
2019-04-21T17:31:10.929Z,100551.02
2019-04-21T17:36:14.844Z,100551.02
2019-04-21T17:41:27.860Z,100558.63
2019-04-21T17:46:34.501Z,100549.67
2019-04-21T17:51:55.621Z,100549.67
2019-04-21T17:57:32.088Z,100553.84
2019-04-21T18:02:26.367Z,100552.27
2019-04-21T18:07:31.471Z,100552.27
2019-04-21T18:12:28.036Z,100556.07
2019-04-21T18:17:20.700Z,100556.07
2019-04-21T18:22:51.261Z,100557.64
2019-04-21T18:27:54.563Z,100552.39
2019-04-21T18:32:59.945Z,100556.56
2019-04-21T18:38:16.910Z,100556.56
2019-04-21T18:43:50.160Z,100557.28
2019-04-21T18:48:38.873Z,100557.28
2019-04-21T18:54:22.643Z,100565.25
2019-04-21T18:59:08.887Z,100559.48
2019-04-21T19:04:19.670Z,100563.42
2019-04-21T19:09:55.921Z,100572.34
2019-04-21T19:14:41.119Z,100572.34
2019-04-21T19:24:52.296Z,100578.32
2019-04-21T19:30:05.475Z,100569.75
2019-04-21T19:34:48.574Z,100569.75
2019-04-21T19:40:05.682Z,100569.53
2019-04-21T19:45:14.982Z,100572.70
2019-04-21T19:50:26.359Z,100572.70
2019-04-21T19:55:09.752Z,100568.18
2019-04-21T20:00:15.518Z,100568.18
2019-04-21T20:05:27.153Z,100569.40
2019-04-21T20:10:44.334Z,100565.49
2019-04-21T20:15:52.042Z,100560.83
2019-04-21T20:20:37.236Z,100560.83
2019-04-21T20:25:47.489Z,100555.19
2019-04-21T20:31:06.766Z,100552.27
2019-04-21T20:36:16.939Z,100547.73
2019-04-21T20:41:07.767Z,100547.73
2019-04-21T20:46:18.188Z,100552.00
2019-04-21T20:51:29.880Z,100542.35
2019-04-21T20:56:26.872Z,100542.72
2019-04-21T21:01:36.214Z,100542.72
2019-04-21T21:06:43.858Z,100545.77
2019-04-21T21:11:56.926Z,100545.63
2019-04-21T21:16:56.621Z,100545.02
2019-04-21T21:21:56.335Z,100538.28
2019-04-21T21:27:07.479Z,100538.28
2019-04-21T21:32:18.486Z,100538.28
2019-04-21T21:37:26.640Z,100533.75
2019-04-21T21:42:06.096Z,100533.88
2019-04-21T21:47:24.191Z,100529.44
2019-04-21T21:52:30.475Z,100529.44
2019-04-21T21:57:20.678Z,100528.37
2019-04-21T22:02:33.066Z,100528.37
2019-04-21T22:07:33.218Z,100536.34
2019-04-21T22:12:45.782Z,100531.77
2019-04-21T22:17:54.001Z,100525.63
2019-04-21T22:22:56.151Z,100525.63
2019-04-21T22:27:53.678Z,100517.55
2019-04-21T22:33:04.513Z,100517.55
2019-04-21T22:38:19.831Z,100507.50
2019-04-21T22:43:19.817Z,100509.83
2019-04-21T22:48:18.249Z,100508.74
2019-04-21T22:53:21.409Z,100508.74
2019-04-21T22:58:31.951Z,100515.86
2019-04-21T23:03:32.549Z,100507.30
2019-04-21T23:08:41.977Z,100501.42
2019-04-21T23:13:45.110Z,100501.42
2019-04-21T23:19:07.764Z,100503.34
2019-04-21T23:24:11.260Z,100501.64
2019-04-21T23:29:17.427Z,100500.30
2019-04-21T23:34:06.300Z,100500.66
2019-04-21T23:39:16.007Z,100487.81
2019-04-21T23:44:18.981Z,100488.04
2019-04-21T23:49:34.573Z,100490.24
2019-04-21T23:54:27.313Z,100490.24
2019-04-21T23:59:38.691Z,100478.13
